Time;durP1;ratioP1;P1;durP2;ratioP2;P2;SDS_P1;SDS_P2;PMS_P1;PMS_P2;Temp;Humidity;BMP_temperature;BMP_pressure;BME280_temperature;BME280_humidity;BME280_pressure;Samples;Min_cycle;Max_cycle;Signal;HPM_P1;HPM_P2
2021/01/23 00:02:35;;;;;;;68.90;34.90;;;;;;;5.02;81.72;98874.61;3562629;82;31772;-82
2021/01/23 00:07:37;;;;;;;40.48;19.48;;;;;;;4.84;81.48;98871.73;3548407;81;98431;-82
2021/01/23 00:12:38;;;;;;;45.10;21.23;;;;;;;4.66;81.27;98870.00;3557756;81;32864;-82
2021/01/23 00:17:38;;;;;;;61.53;28.83;;;;;;;4.54;81.52;98867.55;3565143;81;98307;-83
2021/01/23 00:22:40;;;;;;;81.43;34.03;;;;;;;4.27;81.71;98857.34;3578774;81;31854;-82
2021/01/23 00:27:41;;;;;;;58.10;27.37;;;;;;;4.27;82.10;98860.66;3572033;80;98354;-82
2021/01/23 00:32:42;;;;;;;58.70;30.00;;;;;;;4.03;81.72;98842.89;3553399;82;30585;-83
2021/01/23 00:37:43;;;;;;;54.07;26.60;;;;;;;3.84;81.91;98834.91;3544889;82;98703;-82
2021/01/23 00:42:44;;;;;;;59.50;28.03;;;;;;;3.75;82.20;98837.68;3572811;81;29951;-83
2021/01/23 00:47:45;;;;;;;55.03;24.03;;;;;;;3.67;82.39;98842.84;3604210;80;98879;-82
2021/01/23 00:52:46;;;;;;;45.43;20.63;;;;;;;3.39;81.77;98847.31;3619405;79;28939;-82
2021/01/23 00:57:47;;;;;;;38.80;16.67;;;;;;;3.23;82.21;98838.53;3515733;81;98551;-83
2021/01/23 01:02:48;;;;;;;28.30;12.83;;;;;;;3.11;82.55;98827.88;3559722;80;35017;-83
2021/01/23 01:07:49;;;;;;;25.17;11.93;;;;;;;3.03;82.94;98833.58;3572043;79;98194;-82
2021/01/23 01:12:50;;;;;;;25.57;11.27;;;;;;;2.82;83.82;98825.89;3575639;81;35067;-82
2021/01/23 01:17:51;;;;;;;22.90;10.67;;;;;;;2.46;85.47;98812.87;3568696;81;98534;-82
2021/01/23 01:22:52;;;;;;;21.83;10.43;;;;;;;2.46;85.47;98812.87;3573217;81;35085;-81
2021/01/23 01:27:54;;;;;;;22.10;9.53;;;;;;;2.36;85.97;98805.33;3572950;80;98387;-82
2021/01/23 01:32:55;;;;;;;19.93;9.07;;;;;;;2.27;87.63;98789.87;3580841;81;35531;-82
2021/01/23 01:37:58;;;;;;;18.53;8.47;;;;;;;2.27;87.63;98789.87;3573916;81;98070;-82
2021/01/23 01:42:59;;;;;;;17.47;7.30;;;;;;;2.31;88.12;98780.43;3580147;81;35877;-81
2021/01/23 01:48:01;;;;;;;16.23;7.33;;;;;;;2.53;88.86;98809.50;3557316;81;98183;-82
2021/01/23 01:53:05;;;;;;;13.97;6.33;;;;;;;2.66;89.74;98804.08;3581877;81;34994;-81
2021/01/23 01:58:07;;;;;;;18.53;6.73;;;;;;;2.75;89.54;98797.27;3575658;81;98439;-82
2021/01/23 02:03:50;;;;;;;16.97;7.83;;;;;;;2.84;89.66;98789.63;3575683;80;35317;-83
2021/01/23 02:09:17;;;;;;;14.93;6.97;;;;;;;2.92;89.51;98790.52;3572001;80;98256;-82
2021/01/23 02:14:47;;;;;;;16.10;7.57;;;;;;;2.95;89.23;98788.45;3576395;81;35570;-82
2021/01/23 02:20:11;;;;;;;19.60;8.07;;;;;;;2.98;89.17;98797.20;3570105;81;98730;-82
2021/01/23 02:25:15;;;;;;;16.47;7.70;;;;;;;3.00;89.15;98802.48;3570895;80;34993;-81
2021/01/23 02:30:27;;;;;;;21.85;8.35;;;;;;;3.02;88.87;98789.90;3574575;81;98302;-81
2021/01/23 02:35:29;;;;;;;18.57;7.07;;;;;;;3.03;88.76;98783.31;3577728;80;34960;-82
2021/01/23 02:40:30;;;;;;;16.03;7.00;;;;;;;3.05;88.94;98777.72;3559797;81;98174;-82
2021/01/23 02:45:33;;;;;;;14.23;6.57;;;;;;;3.08;88.68;98763.41;3580065;81;35049;-81
2021/01/23 02:50:35;;;;;;;13.37;5.70;;;;;;;3.10;88.55;98769.25;3566813;81;98212;-82
2021/01/23 02:55:40;;;;;;;13.93;5.63;;;;;;;3.14;88.33;98772.02;3575996;80;35621;-82
2021/01/23 03:00:42;;;;;;;14.23;5.57;;;;;;;3.15;88.25;98756.70;3573304;80;98049;-83
2021/01/23 03:05:44;;;;;;;15.17;6.10;;;;;;;3.15;88.03;98762.70;3570652;81;36163;-83
2021/01/23 03:10:46;;;;;;;20.17;7.30;;;;;;;3.16;87.85;98761.58;3573418;80;98105;-82
2021/01/23 03:15:48;;;;;;;14.37;6.07;;;;;;;3.19;87.78;98744.52;3573743;80;35069;-82
2021/01/23 03:20:49;;;;;;;15.58;7.42;;;;;;;3.21;87.82;98729.41;3568546;80;98217;-83
2021/01/23 03:25:51;;;;;;;13.67;6.60;;;;;;;3.20;87.89;98725.12;3539285;82;34978;-82
2021/01/23 03:30:52;;;;;;;13.53;6.50;;;;;;;3.17;87.91;98717.70;3529484;82;97983;-83
2021/01/23 03:35:53;;;;;;;15.58;7.50;;;;;;;3.12;87.76;98727.53;3532212;82;35021;-83
2021/01/23 03:40:54;;;;;;;16.70;5.90;;;;;;;3.12;87.70;98738.40;3531186;82;98185;-80
2021/01/23 03:45:55;;;;;;;15.73;6.43;;;;;;;3.11;87.80;98752.38;3545654;82;35037;-82
2021/01/23 03:50:59;;;;;;;12.23;4.87;;;;;;;3.13;87.70;98773.97;3528528;82;98282;-81
2021/01/23 03:56:00;;;;;;;12.70;5.40;;;;;;;3.04;87.54;98743.55;3531381;82;35032;-82
2021/01/23 04:01:05;;;;;;;13.40;5.73;;;;;;;3.13;87.62;98769.89;3530757;82;97973;-83
2021/01/23 04:06:06;;;;;;;13.77;6.30;;;;;;;3.14;87.51;98774.17;3524789;82;35096;-83
2021/01/23 04:11:07;;;;;;;14.43;5.97;;;;;;;3.13;87.55;98760.38;3530555;82;98047;-84
2021/01/23 04:16:08;;;;;;;14.37;4.73;;;;;;;3.06;87.37;98725.52;3537654;82;35619;-82
2021/01/23 04:21:09;;;;;;;16.80;7.23;;;;;;;3.01;87.66;98730.69;3541290;81;98440;-82
2021/01/23 04:26:11;;;;;;;12.63;5.03;;;;;;;3.01;87.50;98724.48;3529825;82;35565;-82
2021/01/23 04:31:12;;;;;;;10.75;4.67;;;;;;;3.02;87.60;98736.35;3534882;82;98256;-81
2021/01/23 04:36:13;;;;;;;13.93;4.70;;;;;;;3.05;87.45;98734.80;3543258;82;35150;-82
2021/01/23 04:41:14;;;;;;;13.57;4.50;;;;;;;3.06;87.45;98729.59;3524684;82;98167;-82
2021/01/23 04:46:18;;;;;;;12.30;5.50;;;;;;;3.07;87.54;98723.01;3540445;82;35103;-82
2021/01/23 04:51:19;;;;;;;13.73;5.73;;;;;;;3.11;87.40;98721.13;3537176;81;98344;-82
2021/01/23 04:56:20;;;;;;;13.07;5.40;;;;;;;3.09;87.59;98715.26;3531167;82;35573;-81
2021/01/23 05:01:21;;;;;;;12.77;5.87;;;;;;;3.09;87.44;98682.65;3542541;82;100850;-82
2021/01/23 05:06:22;;;;;;;14.43;6.13;;;;;;;3.06;87.43;98672.53;3547818;82;35074;-81
2021/01/23 05:11:45;;;;;;;13.30;5.77;;;;;;;3.04;87.69;98645.72;3538759;81;97996;-81
2021/01/23 05:16:46;;;;;;;12.73;5.53;;;;;;;3.05;87.93;98644.56;3535102;82;35132;-81
2021/01/23 05:22:01;;;;;;;12.40;5.20;;;;;;;3.03;88.03;98637.37;3531637;82;98203;-82
2021/01/23 05:27:02;;;;;;;14.27;5.70;;;;;;;3.04;88.29;98627.27;3538850;80;98183;-82
2021/01/23 05:32:17;;;;;;;12.67;5.87;;;;;;;3.08;88.11;98646.56;3532736;82;36085;-82
2021/01/23 05:37:34;;;;;;;11.55;5.50;;;;;;;3.11;88.19;98633.57;3529118;82;98222;-82
2021/01/23 05:42:42;;;;;;;16.07;6.17;;;;;;;3.12;88.29;98615.34;3534624;82;35072;-82
2021/01/23 05:47:43;;;;;;;13.18;5.70;;;;;;;3.13;88.24;98614.19;3507517;81;98400;-82
2021/01/23 05:52:43;;;;;;;15.60;6.77;;;;;;;3.16;88.49;98627.05;3539910;82;35663;-81
2021/01/23 05:57:45;;;;;;;14.63;9.30;;;;;;;3.20;88.27;98630.00;3535675;81;97973;-82
2021/01/23 06:02:46;;;;;;;14.63;6.63;;;;;;;3.21;88.49;98623.41;3542870;82;35103;-82
2021/01/23 06:07:48;;;;;;;15.53;7.80;;;;;;;3.23;88.64;98615.64;3542437;81;98066;-82
2021/01/23 06:12:51;;;;;;;17.10;8.07;;;;;;;3.24;89.12;98613.16;3543642;82;35005;-82
2021/01/23 06:17:52;;;;;;;19.17;7.23;;;;;;;3.22;89.38;98601.09;3534118;82;98477;-83
2021/01/23 06:22:54;;;;;;;15.40;7.43;;;;;;;3.20;89.61;98585.72;3553577;81;35013;-82
2021/01/23 06:27:55;;;;;;;18.50;8.43;;;;;;;3.18;89.82;98560.86;3575476;81;98462;-81
2021/01/23 06:32:56;;;;;;;20.27;8.80;;;;;;;3.12;90.45;98549.53;3575336;79;36043;-82
2021/01/23 06:38:13;;;;;;;19.67;9.43;;;;;;;3.12;90.45;98549.53;3568955;79;98310;-81
2021/01/23 06:43:14;;;;;;;19.42;9.20;;;;;;;3.12;91.23;98536.53;3590131;79;25990;-83
2021/01/23 06:48:15;;;;;;;20.93;9.43;;;;;;;3.14;91.58;98526.86;3578609;81;98382;-83
2021/01/23 06:53:23;;;;;;;18.47;8.70;;;;;;;3.13;91.46;98522.58;3579308;80;35191;-81
2021/01/23 06:58:35;;;;;;;29.73;12.43;;;;;;;3.15;91.79;98515.39;3584488;80;98308;-82
2021/01/23 07:03:36;;;;;;;26.80;12.20;;;;;;;3.15;91.81;98498.52;3565657;81;35047;-82
2021/01/23 07:08:37;;;;;;;22.25;11.00;;;;;;;3.13;92.64;98475.02;3565679;79;98616;-82
2021/01/23 07:13:58;;;;;;;20.70;10.63;;;;;;;3.13;92.69;98464.72;3562140;80;36068;-81
2021/01/23 07:19:06;;;;;;;19.53;9.83;;;;;;;3.11;92.98;98459.65;3571004;80;98450;-81
2021/01/23 07:24:09;;;;;;;21.67;9.17;;;;;;;3.12;93.06;98444.91;3585645;79;35469;-81
2021/01/23 07:29:11;;;;;;;22.70;9.90;;;;;;;3.11;93.58;98435.20;3586490;80;98025;-80
2021/01/23 07:34:13;;;;;;;22.73;11.33;;;;;;;3.11;93.43;98419.48;3592674;80;36086;-82
2021/01/23 07:39:19;;;;;;;23.03;10.70;;;;;;;3.10;94.07;98394.80;3577688;80;98172;-80
2021/01/23 07:44:26;;;;;;;23.40;10.93;;;;;;;3.10;93.94;98379.86;3596595;80;26246;-81
2021/01/23 07:49:28;;;;;;;23.87;11.43;;;;;;;3.13;94.22;98385.34;3594306;79;98407;-81
2021/01/23 07:54:30;;;;;;;24.50;12.07;;;;;;;3.16;94.53;98382.45;3590134;79;35583;-81
2021/01/23 07:59:45;;;;;;;25.87;11.97;;;;;;;3.18;95.17;98375.45;3585725;79;98621;-82
2021/01/23 08:04:55;;;;;;;25.57;13.90;;;;;;;3.22;95.39;98359.20;3602042;80;36207;-82
2021/01/23 08:10:18;;;;;;;26.50;13.10;;;;;;;3.24;95.46;98348.72;3580716;80;98669;-82
2021/01/23 08:15:29;;;;;;;29.10;13.60;;;;;;;3.31;96.58;98334.59;3591028;80;35061;-84
2021/01/23 08:20:36;;;;;;;31.87;15.07;;;;;;;3.37;96.55;98324.92;3577338;80;98297;-83
2021/01/23 08:25:50;;;;;;;30.07;15.00;;;;;;;3.42;96.76;98315.05;3586376;79;35014;-83
2021/01/23 08:30:51;;;;;;;28.27;15.17;;;;;;;3.46;97.02;98306.34;3584182;79;98351;-83
2021/01/23 08:35:53;;;;;;;33.87;16.63;;;;;;;3.52;96.40;98299.94;3591036;79;35039;-82
2021/01/23 08:40:54;;;;;;;30.68;15.55;;;;;;;3.55;96.65;98289.07;3586332;81;98250;-82
2021/01/23 08:45:55;;;;;;;31.83;17.30;;;;;;;3.62;96.90;98285.61;3592742;79;35814;-82
2021/01/23 08:50:56;;;;;;;29.13;15.80;;;;;;;3.66;96.73;98274.94;3589595;80;98312;-81
2021/01/23 08:55:57;;;;;;;32.87;17.47;;;;;;;3.70;97.08;98255.91;3598338;80;35031;-83
2021/01/23 09:00:59;;;;;;;32.53;16.83;;;;;;;3.70;97.08;98255.91;3588669;79;98546;-83
2021/01/23 09:06:00;;;;;;;35.20;19.03;;;;;;;3.75;97.35;98250.89;3601295;81;34983;-82
2021/01/23 09:11:01;;;;;;;36.37;21.03;;;;;;;3.80;97.14;98253.23;3585090;79;98321;-83
2021/01/23 09:16:03;;;;;;;41.53;20.93;;;;;;;3.85;97.22;98246.06;3599580;79;35108;-81
2021/01/23 09:21:04;;;;;;;40.77;20.70;;;;;;;3.91;96.77;98245.88;3600811;80;98622;-83
2021/01/23 09:26:05;;;;;;;33.97;19.43;;;;;;;3.95;97.04;98238.52;3549981;81;35096;-82
2021/01/23 09:31:07;;;;;;;30.40;17.60;;;;;;;3.98;97.12;98241.80;3555901;81;98256;-83
2021/01/23 09:36:08;;;;;;;32.40;17.80;;;;;;;4.00;97.16;98224.53;3583179;80;35533;-82
2021/01/23 09:41:12;;;;;;;38.17;20.60;;;;;;;4.05;97.38;98210.52;3559517;81;98333;-83
2021/01/23 09:46:13;;;;;;;39.43;20.63;;;;;;;4.11;97.28;98202.19;3580976;79;35654;-82
2021/01/23 09:51:14;;;;;;;42.60;21.80;;;;;;;4.16;97.25;98201.02;3577841;80;98190;-83
2021/01/23 09:56:15;;;;;;;38.43;20.20;;;;;;;4.23;97.05;98196.92;3578433;81;35571;-83
2021/01/23 10:01:17;;;;;;;33.70;20.03;;;;;;;4.27;96.97;98188.19;3573656;79;98366;-82
2021/01/23 10:06:18;;;;;;;35.50;19.90;;;;;;;4.35;96.90;98176.90;3580334;81;35048;-82
2021/01/23 10:11:19;;;;;;;36.47;21.67;;;;;;;4.39;96.55;98170.88;3578776;81;98171;-81
2021/01/23 10:16:21;;;;;;;35.90;19.70;;;;;;;4.41;96.37;98171.25;3591690;81;35141;-82
2021/01/23 10:21:22;;;;;;;37.80;21.57;;;;;;;4.43;96.41;98159.97;3571343;81;97941;-81
2021/01/23 10:26:23;;;;;;;32.27;18.67;;;;;;;4.46;96.28;98158.61;3553360;81;35059;-82
2021/01/23 10:31:24;;;;;;;30.97;18.80;;;;;;;4.52;96.11;98152.95;3531325;82;98309;-82
2021/01/23 10:36:25;;;;;;;31.23;18.70;;;;;;;4.57;95.96;98149.05;3552233;82;35505;-81
2021/01/23 10:41:26;;;;;;;33.27;19.47;;;;;;;4.59;95.94;98132.50;3534132;82;98759;-83
2021/01/23 10:46:27;;;;;;;38.13;21.67;;;;;;;4.65;95.79;98130.17;3542506;82;35102;-82
2021/01/23 10:51:28;;;;;;;35.10;21.57;;;;;;;4.60;95.83;98110.93;3538131;81;98700;-82
2021/01/23 10:56:30;;;;;;;38.10;22.27;;;;;;;4.61;95.89;98133.48;3523497;82;35025;-82
2021/01/23 11:01:31;;;;;;;51.43;26.23;;;;;;;4.56;96.31;98097.11;3529480;82;98158;-83
2021/01/23 11:06:32;;;;;;;43.47;21.37;;;;;;;4.52;96.22;98115.40;3544161;82;35047;-81
2021/01/23 11:11:33;;;;;;;44.60;23.67;;;;;;;4.55;96.71;98088.75;3527005;82;98273;-81
2021/01/23 11:16:34;;;;;;;40.70;23.23;;;;;;;4.55;96.64;98081.95;3542341;82;35624;-81
2021/01/23 11:21:36;;;;;;;42.62;23.95;;;;;;;4.58;96.79;98075.72;3535158;81;98201;-81
2021/01/23 11:26:37;;;;;;;46.23;24.03;;;;;;;4.66;96.79;98064.98;3569607;80;34014;-81
2021/01/23 11:31:38;;;;;;;46.47;26.23;;;;;;;4.73;96.94;98053.48;3587040;80;98358;-82
2021/01/23 11:36:39;;;;;;;50.40;26.13;;;;;;;4.86;96.81;98041.56;3595930;80;32847;-81
2021/01/23 11:41:40;;;;;;;43.90;24.03;;;;;;;4.93;96.65;98027.89;3588409;80;98324;-81
2021/01/23 11:46:41;;;;;;;45.43;24.37;;;;;;;5.01;96.57;98019.28;3596365;81;32836;-81
2021/01/23 11:51:42;;;;;;;37.60;22.37;;;;;;;5.09;96.36;98015.93;3588075;79;98270;-82
2021/01/23 11:56:44;;;;;;;42.13;24.00;;;;;;;5.19;96.12;98014.48;3597868;79;33422;-81
2021/01/23 12:01:45;;;;;;;46.97;25.97;;;;;;;5.23;95.88;98008.43;3582377;79;98480;-81
2021/01/23 12:06:47;;;;;;;44.23;25.53;;;;;;;5.29;95.81;98019.70;3595912;80;32949;-81
2021/01/23 12:11:48;;;;;;;45.73;25.10;;;;;;;5.39;95.75;98024.28;3590060;80;98672;-81
2021/01/23 12:16:49;;;;;;;52.00;26.27;;;;;;;5.40;95.42;98007.53;3600094;80;32738;-81
2021/01/23 12:21:50;;;;;;;48.10;26.83;;;;;;;5.52;95.28;98005.67;3584933;80;97975;-81
2021/01/23 12:26:51;;;;;;;41.43;24.57;;;;;;;5.60;95.04;98007.19;3559308;81;32685;-81
2021/01/23 12:31:52;;;;;;;61.90;33.10;;;;;;;5.67;94.70;98018.64;3532270;80;98653;-80
2021/01/23 12:36:54;;;;;;;47.23;26.10;;;;;;;5.67;94.63;98006.36;3554838;82;33850;-80
2021/01/23 12:41:55;;;;;;;48.40;28.20;;;;;;;5.67;94.58;97997.57;3522736;82;98068;-81
2021/01/23 12:46:56;;;;;;;56.23;30.70;;;;;;;5.71;94.55;98002.99;3544875;82;33431;-80
2021/01/23 12:51:57;;;;;;;52.07;27.87;;;;;;;5.65;94.45;97998.58;3542902;82;98430;-81
2021/01/23 12:57:01;;;;;;;49.55;29.02;;;;;;;5.66;94.54;98000.12;3541412;82;98120;-80
2021/01/23 13:02:03;;;;;;;53.10;31.40;;;;;;;5.73;94.39;97995.20;3546988;82;27456;-80
2021/01/23 13:07:04;;;;;;;56.87;31.33;;;;;;;5.73;94.21;97991.11;3534218;82;98137;-81
2021/01/23 13:12:06;;;;;;;59.77;32.97;;;;;;;5.73;93.93;97976.09;3555044;81;28463;-80
2021/01/23 13:17:07;;;;;;;70.33;39.43;;;;;;;5.77;93.90;97970.00;3547971;81;98395;-80
2021/01/23 13:22:09;;;;;;;68.60;35.87;;;;;;;5.81;93.80;97987.94;3540065;82;26214;-80
2021/01/23 13:27:10;;;;;;;72.03;38.53;;;;;;;5.82;93.63;97996.87;3552759;81;98660;-80
2021/01/23 13:32:11;;;;;;;67.50;38.90;;;;;;;5.80;93.67;98000.61;3591524;80;26347;-80
2021/01/23 13:37:12;;;;;;;62.93;34.80;;;;;;;5.73;93.58;97992.47;3564930;81;98340;-80
2021/01/23 13:42:13;;;;;;;64.17;32.97;;;;;;;5.63;93.49;98002.27;3604388;80;26824;-80
2021/01/23 13:47:14;;;;;;;80.37;38.80;;;;;;;5.49;93.60;98013.31;3595311;80;98854;-80
2021/01/23 13:52:16;;;;;;;61.80;33.23;;;;;;;5.41;93.69;98028.77;3577001;81;26724;-80
2021/01/23 13:57:17;;;;;;;68.47;37.43;;;;;;;5.31;93.74;98039.95;3588930;80;100479;-80
2021/01/23 14:02:18;;;;;;;55.33;29.10;;;;;;;5.20;93.75;98058.89;3604623;79;25979;-80
2021/01/23 14:07:19;;;;;;;38.07;21.57;;;;;;;5.09;93.66;98078.63;3591544;80;98283;-81
2021/01/23 14:12:20;;;;;;;40.40;22.67;;;;;;;4.91;93.24;98080.06;3604935;80;26190;-81
2021/01/23 14:17:22;;;;;;;37.03;20.67;;;;;;;4.78;93.22;98074.08;3599784;80;98171;-82
2021/01/23 14:22:23;;;;;;;41.03;18.57;;;;;;;4.65;93.21;98072.97;3538728;82;26884;-82
2021/01/23 14:27:24;;;;;;;29.60;16.93;;;;;;;4.45;93.20;98067.77;3575515;80;98803;-82
2021/01/23 14:32:25;;;;;;;42.03;22.87;;;;;;;4.34;93.35;98076.55;3591756;80;27515;-81
2021/01/23 14:37:27;;;;;;;21.37;12.37;;;;;;;4.22;93.52;98072.88;3585804;80;98345;-82
2021/01/23 14:42:28;;;;;;;14.67;7.87;;;;;;;4.09;93.10;98116.66;3584625;80;26747;-81
2021/01/23 14:47:29;;;;;;;9.68;5.03;;;;;;;3.83;92.46;98142.88;3578465;80;98770;-82
2021/01/23 14:52:30;;;;;;;11.55;6.00;;;;;;;3.51;92.24;98160.51;3590229;80;26211;-82
2021/01/23 14:57:31;;;;;;;9.48;4.53;;;;;;;3.28;92.34;98170.90;3577003;80;98311;-81
2021/01/23 15:02:32;;;;;;;9.93;4.60;;;;;;;3.11;92.43;98186.56;3538802;80;33273;-81
2021/01/23 15:07:33;;;;;;;9.03;4.20;;;;;;;2.99;92.36;98195.05;3585702;80;98046;-82
2021/01/23 15:12:37;;;;;;;8.73;4.13;;;;;;;2.85;92.42;98199.03;3597913;79;33701;-81
2021/01/23 15:17:38;;;;;;;9.87;4.60;;;;;;;2.76;92.61;98194.54;3567420;80;98364;-81
2021/01/23 15:22:40;;;;;;;10.80;5.43;;;;;;;2.63;92.58;98209.57;3600036;79;45922;-81
2021/01/23 15:27:41;;;;;;;16.27;7.87;;;;;;;2.51;92.71;98213.19;3586756;79;98300;-82
2021/01/23 15:32:42;;;;;;;10.93;5.17;;;;;;;2.39;92.80;98206.68;3590974;80;33305;-82
2021/01/23 15:37:43;;;;;;;10.63;5.17;;;;;;;2.29;92.96;98214.95;3567865;80;98340;-82
2021/01/23 15:42:44;;;;;;;13.87;6.30;;;;;;;2.25;93.11;98235.08;3577129;80;33342;-88
2021/01/23 15:47:46;;;;;;;11.57;5.67;;;;;;;2.18;93.35;98243.92;3569600;80;98236;-90
2021/01/23 15:52:47;;;;;;;11.00;5.87;;;;;;;2.13;93.45;98276.82;3576353;80;31997;-88
2021/01/23 15:57:48;;;;;;;13.87;7.40;;;;;;;2.08;93.41;98285.30;3575881;80;98246;-88
2021/01/23 16:02:49;;;;;;;12.43;6.17;;;;;;;2.05;93.52;98306.41;3582094;80;32831;-89
2021/01/23 16:07:50;;;;;;;9.40;4.70;;;;;;;1.99;93.55;98310.61;3556275;81;98430;-89
2021/01/23 16:12:51;;;;;;;12.80;5.50;;;;;;;1.95;93.71;98318.48;3585967;81;31543;-89
2021/01/23 16:17:58;;;;;;;11.50;5.33;;;;;;;1.92;93.97;98337.63;3567265;79;98310;-87
2021/01/23 16:22:55;;;;;;;10.87;5.20;;;;;;;1.88;93.92;98336.83;3591647;80;33303;-87
2021/01/23 16:28:01;;;;;;;11.30;4.93;;;;;;;1.87;94.00;98359.65;3569115;80;98282;-80
2021/01/23 16:33:03;;;;;;;9.10;4.27;;;;;;;1.85;94.10;98360.60;3599380;81;34417;-80
2021/01/23 16:38:04;;;;;;;10.78;5.03;;;;;;;1.80;94.29;98369.66;3595264;81;98048;-81
2021/01/23 16:43:05;;;;;;;11.27;5.70;;;;;;;1.78;94.23;98376.00;3594567;80;33424;-80
2021/01/23 16:48:07;;;;;;;13.00;5.80;;;;;;;1.71;94.38;98382.11;3581660;79;98272;-80
2021/01/23 16:53:09;;;;;;;12.03;6.10;;;;;;;1.69;94.61;98386.36;3586019;79;33755;-81
2021/01/23 16:58:10;;;;;;;10.53;4.47;;;;;;;1.66;94.67;98397.37;3624772;80;98207;-81
2021/01/23 17:03:11;;;;;;;11.03;5.50;;;;;;;1.67;94.75;98414.39;3625833;79;33271;-81
2021/01/23 17:08:12;;;;;;;12.10;5.72;;;;;;;1.67;94.81;98413.04;3617867;78;98195;-80
2021/01/23 17:13:13;;;;;;;18.57;9.00;;;;;;;1.67;94.90;98411.69;3636278;79;33338;-81
2021/01/23 17:18:14;;;;;;;13.43;6.17;;;;;;;1.67;95.01;98412.48;3627481;78;98310;-81
2021/01/23 17:23:16;;;;;;;16.97;7.13;;;;;;;1.64;95.13;98414.55;3637685;78;33282;-82
2021/01/23 17:28:18;;;;;;;13.28;6.22;;;;;;;1.63;95.07;98423.84;3620825;80;98018;-81
2021/01/23 17:33:19;;;;;;;10.33;4.80;;;;;;;1.64;95.32;98440.30;3624323;80;34320;-81
2021/01/23 17:38:20;;;;;;;14.40;5.77;;;;;;;1.67;95.35;98457.21;3618033;80;98240;-81
2021/01/23 17:43:21;;;;;;;12.30;5.30;;;;;;;1.67;95.41;98470.77;3619413;80;33770;-81
2021/01/23 17:48:22;;;;;;;10.33;4.90;;;;;;;1.69;95.30;98483.38;3621572;80;98401;-81
2021/01/23 17:53:26;;;;;;;10.57;4.70;;;;;;;1.69;95.31;98490.16;3626749;80;32053;-82
2021/01/23 17:58:27;;;;;;;9.03;4.07;;;;;;;1.62;95.44;98490.61;3601175;80;98029;-81
2021/01/23 18:03:30;;;;;;;9.37;4.30;;;;;;;1.71;95.58;98518.26;3626212;80;33358;-81
2021/01/23 18:08:32;;;;;;;12.40;6.00;;;;;;;1.74;95.60;98527.80;3613731;80;98335;-82
2021/01/23 18:13:33;;;;;;;14.07;5.83;;;;;;;1.74;95.44;98529.72;3625413;80;33357;-83
2021/01/23 18:18:34;;;;;;;15.93;7.17;;;;;;;1.77;95.61;98512.73;3614807;80;98325;-83
2021/01/23 18:23:36;;;;;;;28.70;9.67;;;;;;;1.75;95.55;98524.53;3632172;80;33896;-82
2021/01/23 18:28:37;;;;;;;20.67;7.93;;;;;;;1.75;95.54;98529.36;3616634;80;98153;-83
2021/01/23 18:33:40;;;;;;;16.70;7.37;;;;;;;1.77;95.60;98542.00;3617293;80;33421;-83
2021/01/23 18:38:41;;;;;;;31.80;12.30;;;;;;;1.79;95.57;98544.33;3616852;80;98320;-84
2021/01/23 18:43:42;;;;;;;22.30;8.27;;;;;;;1.82;95.68;98556.60;3629889;80;33362;-84
2021/01/23 18:48:43;;;;;;;19.62;8.60;;;;;;;1.83;95.53;98558.16;3619287;80;97989;-84
2021/01/23 18:53:44;;;;;;;17.67;8.47;;;;;;;1.81;95.63;98558.31;3624729;80;33415;-82
2021/01/23 18:58:45;;;;;;;16.07;7.70;;;;;;;1.79;95.75;98549.75;3614637;80;98296;-81
2021/01/23 19:03:45;;;;;;;15.00;6.90;;;;;;;1.80;95.88;98539.13;3624930;79;33857;-81
2021/01/23 19:08:47;;;;;;;15.07;8.27;;;;;;;1.79;95.93;98533.47;3606584;80;98413;-82
2021/01/23 19:13:48;;;;;;;16.33;7.37;;;;;;;1.78;95.84;98534.06;3621587;79;98422;-81
2021/01/23 19:18:50;;;;;;;14.17;7.97;;;;;;;1.77;95.96;98541.20;3625079;80;30559;-82
2021/01/23 19:23:51;;;;;;;13.43;6.13;;;;;;;1.75;96.00;98551.64;3626069;80;97808;-81
2021/01/23 19:28:52;;;;;;;12.73;6.33;;;;;;;1.71;96.02;98568.42;3613535;79;98343;-83
2021/01/23 19:33:54;;;;;;;12.83;6.20;;;;;;;1.80;95.98;98598.79;3617508;80;29630;-82
2021/01/23 19:38:55;;;;;;;15.07;7.27;;;;;;;1.80;95.86;98629.98;3618219;80;97995;-83
2021/01/23 19:43:56;;;;;;;15.43;7.97;;;;;;;1.84;95.81;98663.34;3622027;80;32444;-81
2021/01/23 19:48:59;;;;;;;12.73;7.53;;;;;;;1.87;95.67;98694.58;3612330;80;98163;-84
2021/01/23 19:54:00;;;;;;;13.33;6.57;;;;;;;1.91;95.50;98705.52;3630267;80;34022;-83
2021/01/23 19:59:01;;;;;;;14.63;6.70;;;;;;;1.96;95.38;98710.61;3612019;79;98693;-83
2021/01/23 20:04:02;;;;;;;13.73;5.77;;;;;;;1.98;95.33;98696.14;3611386;80;32723;-83
2021/01/23 20:09:05;;;;;;;13.13;6.67;;;;;;;1.98;95.48;98667.66;3611381;80;98242;-84
2021/01/23 20:14:06;;;;;;;13.03;5.93;;;;;;;1.95;95.52;98665.66;3621485;80;33344;-83
2021/01/23 20:19:07;;;;;;;10.50;5.60;;;;;;;1.93;95.48;98674.73;3607521;80;98060;-83
2021/01/23 20:24:09;;;;;;;11.57;5.70;;;;;;;1.98;95.27;98690.71;3598270;80;33685;-84
2021/01/23 20:29:10;;;;;;;13.37;6.30;;;;;;;2.00;95.28;98695.20;3620298;80;98548;-84
2021/01/23 20:34:11;;;;;;;12.90;6.10;;;;;;;1.99;95.17;98704.48;3624389;80;33907;-83
2021/01/23 20:39:12;;;;;;;11.90;5.63;;;;;;;1.99;95.18;98702.56;3615405;80;98271;-83
2021/01/23 20:44:14;;;;;;;24.93;8.57;;;;;;;2.05;95.29;98690.83;3611562;80;32275;-84
2021/01/23 20:49:15;;;;;;;19.93;8.07;;;;;;;2.08;95.23;98677.31;3614448;80;98254;-83
2021/01/23 20:54:16;;;;;;;13.50;6.27;;;;;;;2.12;95.20;98667.87;3612750;80;32662;-84
2021/01/23 20:59:17;;;;;;;24.23;10.20;;;;;;;2.14;95.20;98660.17;3599393;80;98000;-84
2021/01/23 21:04:18;;;;;;;23.17;9.93;;;;;;;2.14;95.09;98660.93;3619734;79;31026;-84
2021/01/23 21:09:20;;;;;;;28.00;12.57;;;;;;;2.15;94.91;98670.66;3614162;80;98231;-84
2021/01/23 21:14:22;;;;;;;40.03;19.73;;;;;;;2.17;94.95;98671.63;3620895;80;32078;-84
2021/01/23 21:19:23;;;;;;;17.82;9.28;;;;;;;2.17;95.06;98658.86;3613494;80;98336;-82
2021/01/23 21:24:24;;;;;;;17.43;9.07;;;;;;;2.20;95.09;98651.33;3619206;80;29590;-84
2021/01/23 21:29:25;;;;;;;16.30;8.10;;;;;;;2.16;95.13;98668.16;3630299;80;98323;-84
2021/01/23 21:34:27;;;;;;;16.00;8.53;;;;;;;2.17;95.16;98667.56;3630863;80;30618;-84
2021/01/23 21:39:28;;;;;;;18.33;9.10;;;;;;;2.19;95.38;98673.43;3625903;80;98626;-83
2021/01/23 21:44:29;;;;;;;22.73;10.00;;;;;;;2.20;95.24;98670.33;3642047;80;31564;-83
2021/01/23 21:49:30;;;;;;;20.43;9.40;;;;;;;2.22;95.22;98676.75;3624749;80;98278;-83
2021/01/23 21:54:31;;;;;;;19.93;9.63;;;;;;;2.18;95.21;98675.94;3630859;79;28598;-83
2021/01/23 21:59:32;;;;;;;29.12;12.68;;;;;;;2.23;95.21;98696.75;3637375;80;97919;-84
2021/01/23 22:04:33;;;;;;;39.10;17.20;;;;;;;2.29;95.15;98694.53;3632709;80;31785;-83
2021/01/23 22:09:35;;;;;;;19.17;9.10;;;;;;;2.30;95.05;98679.80;3605392;80;98252;-85
2021/01/23 22:14:36;;;;;;;18.03;9.43;;;;;;;2.31;95.01;98671.30;3625290;79;32329;-84
2021/01/23 22:19:37;;;;;;;16.87;9.23;;;;;;;2.34;95.04;98675.98;3613246;80;97972;-84
2021/01/23 22:24:38;;;;;;;25.27;12.10;;;;;;;2.37;94.86;98679.91;3622828;80;32260;-83
2021/01/23 22:29:39;;;;;;;24.77;12.93;;;;;;;2.35;94.88;98672.12;3611770;80;98295;-84
2021/01/23 22:34:40;;;;;;;24.73;13.63;;;;;;;2.34;94.90;98682.77;3594457;80;30536;-84
2021/01/23 22:39:41;;;;;;;18.23;10.20;;;;;;;2.38;94.81;98682.82;3603380;80;98374;-84
2021/01/23 22:44:42;;;;;;;24.03;13.23;;;;;;;2.40;94.67;98682.67;3614884;80;28003;-84
2021/01/23 22:49:43;;;;;;;25.37;14.50;;;;;;;2.37;94.65;98687.48;3602129;80;98316;-84
2021/01/23 22:54:44;;;;;;;31.83;19.00;;;;;;;2.36;94.83;98685.13;3601217;80;27943;-84
2021/01/23 22:59:45;;;;;;;16.83;8.43;;;;;;;2.39;94.87;98683.82;3604355;80;98178;-85
2021/01/23 23:04:46;;;;;;;17.30;10.27;;;;;;;2.43;94.80;98704.23;3607120;80;35074;-84
2021/01/23 23:09:47;;;;;;;18.83;8.80;;;;;;;2.50;94.63;98713.27;3606356;80;98183;-84
2021/01/23 23:14:48;;;;;;;18.97;9.10;;;;;;;2.54;94.54;98706.53;3614735;80;35091;-84
2021/01/23 23:19:49;;;;;;;17.82;8.35;;;;;;;2.56;94.48;98705.61;3605205;80;98347;-84
2021/01/23 23:24:50;;;;;;;22.43;11.20;;;;;;;2.51;94.31;98695.83;3608319;80;35154;-84
2021/01/23 23:29:51;;;;;;;37.77;16.33;;;;;;;2.55;94.25;98674.16;3613058;80;98144;-83
2021/01/23 23:34:53;;;;;;;26.03;14.47;;;;;;;2.55;94.25;98674.16;3635761;79;35142;-84